sensor_id;sensor_type;location;lat;lon;timestamp;P1;durP1;ratioP1;P2;durP2;ratioP2
23346;SDS011;36852;45.466;11.066;2022-11-11T00:02:21;1.92;;;1.22;;
23346;SDS011;36852;45.466;11.066;2022-11-11T00:05:08;4.20;;;1.35;;
23346;SDS011;36852;45.466;11.066;2022-11-11T00:07:57;1.80;;;1.40;;
23346;SDS011;36852;45.466;11.066;2022-11-11T00:10:45;1.70;;;1.50;;
23346;SDS011;36852;45.466;11.066;2022-11-11T00:13:33;4.65;;;1.72;;
23346;SDS011;36852;45.466;11.066;2022-11-11T00:16:19;1.92;;;1.20;;
23346;SDS011;36852;45.466;11.066;2022-11-11T00:19:07;1.00;;;0.90;;
23346;SDS011;36852;45.466;11.066;2022-11-11T00:22:20;2.33;;;1.20;;
23346;SDS011;36852;45.466;11.066;2022-11-11T00:25:15;2.37;;;1.07;;
23346;SDS011;36852;45.466;11.066;2022-11-11T00:28:02;2.67;;;1.25;;
23346;SDS011;36852;45.466;11.066;2022-11-11T00:30:49;3.00;;;0.93;;
23346;SDS011;36852;45.466;11.066;2022-11-11T00:33:36;4.53;;;1.10;;
23346;SDS011;36852;45.466;11.066;2022-11-11T00:36:23;1.37;;;1.10;;
23346;SDS011;36852;45.466;11.066;2022-11-11T00:39:09;1.42;;;1.07;;
23346;SDS011;36852;45.466;11.066;2022-11-11T00:41:56;4.75;;;0.88;;
23346;SDS011;36852;45.466;11.066;2022-11-11T00:44:42;5.42;;;1.20;;
23346;SDS011;36852;45.466;11.066;2022-11-11T00:47:30;1.37;;;0.90;;
23346;SDS011;36852;45.466;11.066;2022-11-11T00:50:35;1.02;;;0.93;;
23346;SDS011;36852;45.466;11.066;2022-11-11T00:53:40;2.40;;;1.15;;
23346;SDS011;36852;45.466;11.066;2022-11-11T00:56:27;1.27;;;1.00;;
23346;SDS011;36852;45.466;11.066;2022-11-11T00:59:13;2.30;;;1.00;;
23346;SDS011;36852;45.466;11.066;2022-11-11T01:01:59;1.67;;;1.17;;
23346;SDS011;36852;45.466;11.066;2022-11-11T01:04:46;0.68;;;0.68;;
23346;SDS011;36852;45.466;11.066;2022-11-11T01:07:33;3.02;;;1.12;;
23346;SDS011;36852;45.466;11.066;2022-11-11T01:10:22;3.02;;;1.02;;
23346;SDS011;36852;45.466;11.066;2022-11-11T01:13:31;1.07;;;0.95;;
23346;SDS011;36852;45.466;11.066;2022-11-11T01:16:23;1.30;;;1.20;;
23346;SDS011;36852;45.466;11.066;2022-11-11T01:19:07;1.60;;;1.02;;
23346;SDS011;36852;45.466;11.066;2022-11-11T01:21:53;1.77;;;1.05;;
23346;SDS011;36852;45.466;11.066;2022-11-11T01:24:40;1.35;;;1.02;;
23346;SDS011;36852;45.466;11.066;2022-11-11T01:27:26;1.42;;;1.00;;
23346;SDS011;36852;45.466;11.066;2022-11-11T01:30:13;1.12;;;0.80;;
23346;SDS011;36852;45.466;11.066;2022-11-11T01:33:00;1.45;;;1.27;;
23346;SDS011;36852;45.466;11.066;2022-11-11T01:35:46;2.30;;;1.37;;
23346;SDS011;36852;45.466;11.066;2022-11-11T01:38:37;2.45;;;1.10;;
23346;SDS011;36852;45.466;11.066;2022-11-11T01:41:25;1.40;;;1.25;;
23346;SDS011;36852;45.466;11.066;2022-11-11T01:44:19;1.30;;;1.00;;
23346;SDS011;36852;45.466;11.066;2022-11-11T01:47:06;2.22;;;1.00;;
23346;SDS011;36852;45.466;11.066;2022-11-11T01:49:57;2.10;;;1.10;;
23346;SDS011;36852;45.466;11.066;2022-11-11T01:52:46;2.17;;;1.07;;
23346;SDS011;36852;45.466;11.066;2022-11-11T01:55:33;1.30;;;1.15;;
23346;SDS011;36852;45.466;11.066;2022-11-11T01:58:22;2.33;;;1.10;;
23346;SDS011;36852;45.466;11.066;2022-11-11T02:01:08;2.45;;;0.90;;
23346;SDS011;36852;45.466;11.066;2022-11-11T02:03:56;2.95;;;1.00;;
23346;SDS011;36852;45.466;11.066;2022-11-11T02:09:50;2.60;;;1.35;;
23346;SDS011;36852;45.466;11.066;2022-11-11T02:12:37;1.85;;;1.32;;
23346;SDS011;36852;45.466;11.066;2022-11-11T02:15:42;2.35;;;1.12;;
23346;SDS011;36852;45.466;11.066;2022-11-11T02:18:29;2.42;;;0.90;;
23346;SDS011;36852;45.466;11.066;2022-11-11T02:21:19;1.07;;;0.95;;
23346;SDS011;36852;45.466;11.066;2022-11-11T02:24:08;3.65;;;1.20;;
23346;SDS011;36852;45.466;11.066;2022-11-11T02:26:58;1.67;;;1.05;;
23346;SDS011;36852;45.466;11.066;2022-11-11T02:29:47;1.17;;;1.07;;
23346;SDS011;36852;45.466;11.066;2022-11-11T02:32:35;1.72;;;1.40;;
23346;SDS011;36852;45.466;11.066;2022-11-11T02:35:29;1.67;;;1.00;;
23346;SDS011;36852;45.466;11.066;2022-11-11T02:38:17;8.88;;;2.15;;
23346;SDS011;36852;45.466;11.066;2022-11-11T02:41:04;2.37;;;0.80;;
23346;SDS011;36852;45.466;11.066;2022-11-11T02:44:08;1.85;;;0.80;;
23346;SDS011;36852;45.466;11.066;2022-11-11T02:46:54;2.08;;;1.07;;
23346;SDS011;36852;45.466;11.066;2022-11-11T02:49:41;1.10;;;1.00;;
23346;SDS011;36852;45.466;11.066;2022-11-11T02:52:29;1.40;;;0.82;;
23346;SDS011;36852;45.466;11.066;2022-11-11T02:55:15;1.25;;;1.10;;
23346;SDS011;36852;45.466;11.066;2022-11-11T02:58:02;1.32;;;0.93;;
23346;SDS011;36852;45.466;11.066;2022-11-11T03:00:48;1.12;;;0.90;;
23346;SDS011;36852;45.466;11.066;2022-11-11T03:03:35;3.25;;;1.20;;
23346;SDS011;36852;45.466;11.066;2022-11-11T03:06:21;1.35;;;0.90;;
23346;SDS011;36852;45.466;11.066;2022-11-11T03:09:07;1.47;;;1.00;;
23346;SDS011;36852;45.466;11.066;2022-11-11T03:11:54;1.32;;;0.80;;
23346;SDS011;36852;45.466;11.066;2022-11-11T03:14:40;0.90;;;0.70;;
23346;SDS011;36852;45.466;11.066;2022-11-11T03:17:28;1.65;;;1.00;;
23346;SDS011;36852;45.466;11.066;2022-11-11T03:20:27;1.20;;;1.07;;
23346;SDS011;36852;45.466;11.066;2022-11-11T03:23:33;1.12;;;0.80;;
23346;SDS011;36852;45.466;11.066;2022-11-11T03:26:22;3.08;;;0.82;;
23346;SDS011;36852;45.466;11.066;2022-11-11T03:29:08;1.15;;;0.90;;
23346;SDS011;36852;45.466;11.066;2022-11-11T03:31:55;0.90;;;0.82;;
23346;SDS011;36852;45.466;11.066;2022-11-11T03:34:41;1.02;;;0.90;;
23346;SDS011;36852;45.466;11.066;2022-11-11T03:37:27;1.32;;;0.80;;
23346;SDS011;36852;45.466;11.066;2022-11-11T03:40:32;3.25;;;0.90;;
23346;SDS011;36852;45.466;11.066;2022-11-11T03:43:18;1.72;;;0.90;;
23346;SDS011;36852;45.466;11.066;2022-11-11T03:46:06;0.95;;;0.85;;
23346;SDS011;36852;45.466;11.066;2022-11-11T03:48:53;5.85;;;1.12;;
23346;SDS011;36852;45.466;11.066;2022-11-11T03:51:39;1.05;;;0.80;;
23346;SDS011;36852;45.466;11.066;2022-11-11T03:54:29;1.25;;;0.65;;
23346;SDS011;36852;45.466;11.066;2022-11-11T03:57:15;1.22;;;0.80;;
23346;SDS011;36852;45.466;11.066;2022-11-11T04:00:18;0.98;;;0.88;;
23346;SDS011;36852;45.466;11.066;2022-11-11T04:03:12;1.17;;;0.88;;
23346;SDS011;36852;45.466;11.066;2022-11-11T04:09:18;1.40;;;0.80;;
23346;SDS011;36852;45.466;11.066;2022-11-11T04:12:23;0.93;;;0.80;;
23346;SDS011;36852;45.466;11.066;2022-11-11T04:15:11;0.68;;;0.68;;
23346;SDS011;36852;45.466;11.066;2022-11-11T04:18:18;0.98;;;0.80;;
23346;SDS011;36852;45.466;11.066;2022-11-11T04:21:06;1.42;;;1.00;;
23346;SDS011;36852;45.466;11.066;2022-11-11T04:24:15;1.05;;;0.82;;
23346;SDS011;36852;45.466;11.066;2022-11-11T04:27:20;1.10;;;0.78;;
23346;SDS011;36852;45.466;11.066;2022-11-11T04:30:07;4.42;;;1.00;;
23346;SDS011;36852;45.466;11.066;2022-11-11T04:32:53;1.30;;;0.98;;
23346;SDS011;36852;45.466;11.066;2022-11-11T04:35:41;0.90;;;0.62;;
23346;SDS011;36852;45.466;11.066;2022-11-11T04:38:28;4.25;;;0.88;;
23346;SDS011;36852;45.466;11.066;2022-11-11T04:41:33;2.67;;;0.90;;
23346;SDS011;36852;45.466;11.066;2022-11-11T04:44:21;1.15;;;0.65;;
23346;SDS011;36852;45.466;11.066;2022-11-11T04:47:25;1.87;;;0.60;;
23346;SDS011;36852;45.466;11.066;2022-11-11T04:50:12;2.33;;;0.60;;
23346;SDS011;36852;45.466;11.066;2022-11-11T04:53:00;0.80;;;0.80;;
23346;SDS011;36852;45.466;11.066;2022-11-11T04:55:48;0.95;;;0.70;;
23346;SDS011;36852;45.466;11.066;2022-11-11T04:58:52;2.52;;;0.78;;
23346;SDS011;36852;45.466;11.066;2022-11-11T05:01:40;0.75;;;0.70;;
23346;SDS011;36852;45.466;11.066;2022-11-11T05:04:45;2.25;;;0.70;;
23346;SDS011;36852;45.466;11.066;2022-11-11T05:07:31;3.62;;;1.60;;
23346;SDS011;36852;45.466;11.066;2022-11-11T05:10:36;2.42;;;1.27;;
23346;SDS011;36852;45.466;11.066;2022-11-11T05:13:23;1.87;;;1.20;;
23346;SDS011;36852;45.466;11.066;2022-11-11T05:16:28;1.87;;;1.00;;
23346;SDS011;36852;45.466;11.066;2022-11-11T05:19:34;1.95;;;0.70;;
23346;SDS011;36852;45.466;11.066;2022-11-11T05:22:41;3.17;;;1.20;;
23346;SDS011;36852;45.466;11.066;2022-11-11T05:25:27;1.25;;;0.85;;
23346;SDS011;36852;45.466;11.066;2022-11-11T05:28:15;1.27;;;0.78;;
23346;SDS011;36852;45.466;11.066;2022-11-11T05:31:02;1.12;;;1.02;;
23346;SDS011;36852;45.466;11.066;2022-11-11T05:33:48;0.78;;;0.68;;
23346;SDS011;36852;45.466;11.066;2022-11-11T05:36:38;0.82;;;0.70;;
23346;SDS011;36852;45.466;11.066;2022-11-11T05:39:24;2.42;;;0.78;;
23346;SDS011;36852;45.466;11.066;2022-11-11T05:42:11;3.12;;;0.90;;
23346;SDS011;36852;45.466;11.066;2022-11-11T05:44:57;0.80;;;0.65;;
23346;SDS011;36852;45.466;11.066;2022-11-11T05:47:43;1.30;;;0.95;;
23346;SDS011;36852;45.466;11.066;2022-11-11T05:50:30;2.08;;;0.80;;
23346;SDS011;36852;45.466;11.066;2022-11-11T05:53:17;1.05;;;0.95;;
23346;SDS011;36852;45.466;11.066;2022-11-11T05:56:09;1.20;;;0.88;;
23346;SDS011;36852;45.466;11.066;2022-11-11T05:58:54;1.87;;;1.10;;
23346;SDS011;36852;45.466;11.066;2022-11-11T06:01:41;1.95;;;0.90;;
23346;SDS011;36852;45.466;11.066;2022-11-11T06:04:27;1.10;;;1.00;;
23346;SDS011;36852;45.466;11.066;2022-11-11T06:07:14;1.70;;;0.90;;
23346;SDS011;36852;45.466;11.066;2022-11-11T06:10:00;1.98;;;1.00;;
23346;SDS011;36852;45.466;11.066;2022-11-11T06:12:48;2.35;;;1.00;;
23346;SDS011;36852;45.466;11.066;2022-11-11T06:15:50;1.32;;;1.00;;
23346;SDS011;36852;45.466;11.066;2022-11-11T06:18:36;3.08;;;1.10;;
23346;SDS011;36852;45.466;11.066;2022-11-11T06:21:22;1.47;;;1.35;;
23346;SDS011;36852;45.466;11.066;2022-11-11T06:24:09;1.40;;;1.10;;
23346;SDS011;36852;45.466;11.066;2022-11-11T06:26:55;1.47;;;1.15;;
23346;SDS011;36852;45.466;11.066;2022-11-11T06:29:42;1.75;;;1.37;;
23346;SDS011;36852;45.466;11.066;2022-11-11T06:32:29;1.50;;;1.02;;
23346;SDS011;36852;45.466;11.066;2022-11-11T06:35:17;1.37;;;1.10;;
23346;SDS011;36852;45.466;11.066;2022-11-11T06:38:04;1.47;;;1.20;;
23346;SDS011;36852;45.466;11.066;2022-11-11T06:40:51;2.00;;;1.52;;
23346;SDS011;36852;45.466;11.066;2022-11-11T06:43:41;2.02;;;1.10;;
23346;SDS011;36852;45.466;11.066;2022-11-11T06:46:27;3.83;;;1.02;;
23346;SDS011;36852;45.466;11.066;2022-11-11T06:49:13;0.95;;;0.90;;
23346;SDS011;36852;45.466;11.066;2022-11-11T06:52:00;2.40;;;1.27;;
23346;SDS011;36852;45.466;11.066;2022-11-11T06:54:46;5.75;;;1.30;;
23346;SDS011;36852;45.466;11.066;2022-11-11T06:57:36;4.20;;;1.40;;
23346;SDS011;36852;45.466;11.066;2022-11-11T07:00:22;4.50;;;1.17;;
23346;SDS011;36852;45.466;11.066;2022-11-11T07:03:08;1.30;;;1.00;;
23346;SDS011;36852;45.466;11.066;2022-11-11T07:06:00;3.58;;;1.20;;
23346;SDS011;36852;45.466;11.066;2022-11-11T07:08:47;2.47;;;1.10;;
23346;SDS011;36852;45.466;11.066;2022-11-11T07:11:33;2.15;;;1.22;;
23346;SDS011;36852;45.466;11.066;2022-11-11T07:14:19;2.12;;;1.30;;
23346;SDS011;36852;45.466;11.066;2022-11-11T07:17:06;2.52;;;1.57;;
23346;SDS011;36852;45.466;11.066;2022-11-11T07:20:02;2.15;;;1.32;;
23346;SDS011;36852;45.466;11.066;2022-11-11T07:22:49;1.60;;;1.30;;
23346;SDS011;36852;45.466;11.066;2022-11-11T07:25:35;1.30;;;1.00;;
23346;SDS011;36852;45.466;11.066;2022-11-11T07:28:22;6.05;;;1.00;;
23346;SDS011;36852;45.466;11.066;2022-11-11T07:31:30;1.57;;;1.10;;
23346;SDS011;36852;45.466;11.066;2022-11-11T07:34:16;2.72;;;1.12;;
23346;SDS011;36852;45.466;11.066;2022-11-11T07:37:03;2.77;;;1.30;;
23346;SDS011;36852;45.466;11.066;2022-11-11T07:39:49;3.60;;;1.17;;
23346;SDS011;36852;45.466;11.066;2022-11-11T07:42:36;1.70;;;1.20;;
23346;SDS011;36852;45.466;11.066;2022-11-11T07:45:22;4.62;;;1.20;;
23346;SDS011;36852;45.466;11.066;2022-11-11T07:48:09;5.95;;;1.25;;
23346;SDS011;36852;45.466;11.066;2022-11-11T07:50:55;8.70;;;2.10;;
23346;SDS011;36852;45.466;11.066;2022-11-11T07:53:41;6.17;;;2.30;;
23346;SDS011;36852;45.466;11.066;2022-11-11T07:56:27;3.95;;;2.35;;
23346;SDS011;36852;45.466;11.066;2022-11-11T07:59:13;2.42;;;1.70;;
23346;SDS011;36852;45.466;11.066;2022-11-11T08:02:00;3.25;;;1.30;;
23346;SDS011;36852;45.466;11.066;2022-11-11T08:04:46;6.22;;;4.60;;
23346;SDS011;36852;45.466;11.066;2022-11-11T08:07:34;10.80;;;7.25;;
23346;SDS011;36852;45.466;11.066;2022-11-11T08:10:22;28.45;;;17.35;;
23346;SDS011;36852;45.466;11.066;2022-11-11T08:13:09;24.35;;;17.10;;
23346;SDS011;36852;45.466;11.066;2022-11-11T08:16:14;25.62;;;18.65;;
23346;SDS011;36852;45.466;11.066;2022-11-11T08:19:02;19.23;;;14.13;;
23346;SDS011;36852;45.466;11.066;2022-11-11T08:21:48;16.73;;;11.28;;
23346;SDS011;36852;45.466;11.066;2022-11-11T08:24:34;12.47;;;7.70;;
23346;SDS011;36852;45.466;11.066;2022-11-11T08:27:23;9.10;;;6.70;;
23346;SDS011;36852;45.466;11.066;2022-11-11T08:30:09;10.85;;;6.47;;
23346;SDS011;36852;45.466;11.066;2022-11-11T08:32:56;10.90;;;7.40;;
23346;SDS011;36852;45.466;11.066;2022-11-11T08:35:46;8.50;;;6.35;;
23346;SDS011;36852;45.466;11.066;2022-11-11T08:38:33;11.55;;;6.05;;
23346;SDS011;36852;45.466;11.066;2022-11-11T08:41:21;23.95;;;11.25;;
23346;SDS011;36852;45.466;11.066;2022-11-11T08:44:11;18.35;;;11.83;;
23346;SDS011;36852;45.466;11.066;2022-11-11T08:46:57;12.18;;;9.85;;
23346;SDS011;36852;45.466;11.066;2022-11-11T08:49:43;12.50;;;8.65;;
23346;SDS011;36852;45.466;11.066;2022-11-11T08:52:29;9.98;;;7.12;;
23346;SDS011;36852;45.466;11.066;2022-11-11T08:55:16;9.53;;;6.00;;
23346;SDS011;36852;45.466;11.066;2022-11-11T08:58:04;7.37;;;4.45;;
23346;SDS011;36852;45.466;11.066;2022-11-11T09:00:53;5.97;;;4.37;;
23346;SDS011;36852;45.466;11.066;2022-11-11T09:03:39;6.85;;;4.20;;
23346;SDS011;36852;45.466;11.066;2022-11-11T09:06:28;6.58;;;5.10;;
23346;SDS011;36852;45.466;11.066;2022-11-11T09:09:14;11.93;;;6.15;;
23346;SDS011;36852;45.466;11.066;2022-11-11T09:12:01;8.10;;;5.97;;
23346;SDS011;36852;45.466;11.066;2022-11-11T09:14:47;10.82;;;5.60;;
23346;SDS011;36852;45.466;11.066;2022-11-11T09:17:34;8.63;;;6.40;;
23346;SDS011;36852;45.466;11.066;2022-11-11T09:20:23;7.03;;;5.87;;
23346;SDS011;36852;45.466;11.066;2022-11-11T09:23:12;8.03;;;6.20;;
23346;SDS011;36852;45.466;11.066;2022-11-11T09:25:59;6.87;;;5.08;;
23346;SDS011;36852;45.466;11.066;2022-11-11T09:28:48;12.80;;;5.12;;
23346;SDS011;36852;45.466;11.066;2022-11-11T09:31:34;8.58;;;5.50;;
23346;SDS011;36852;45.466;11.066;2022-11-11T09:34:22;9.18;;;5.62;;
23346;SDS011;36852;45.466;11.066;2022-11-11T09:37:09;7.40;;;4.83;;
23346;SDS011;36852;45.466;11.066;2022-11-11T09:39:55;10.93;;;5.17;;
23346;SDS011;36852;45.466;11.066;2022-11-11T09:42:54;12.28;;;6.25;;
23346;SDS011;36852;45.466;11.066;2022-11-11T10:01:22;9.38;;;6.08;;
23346;SDS011;36852;45.466;11.066;2022-11-11T10:13:33;8.05;;;5.62;;
23346;SDS011;36852;45.466;11.066;2022-11-11T10:16:39;8.73;;;6.08;;
23346;SDS011;36852;45.466;11.066;2022-11-11T10:19:48;7.72;;;5.35;;
23346;SDS011;36852;45.466;11.066;2022-11-11T10:22:39;14.47;;;7.95;;
23346;SDS011;36852;45.466;11.066;2022-11-11T10:25:27;6.90;;;5.42;;
23346;SDS011;36852;45.466;11.066;2022-11-11T10:28:14;8.78;;;7.37;;
23346;SDS011;36852;45.466;11.066;2022-11-11T10:31:03;10.90;;;9.10;;
23346;SDS011;36852;45.466;11.066;2022-11-11T10:33:57;8.20;;;6.62;;
23346;SDS011;36852;45.466;11.066;2022-11-11T10:36:53;8.23;;;6.30;;
23346;SDS011;36852;45.466;11.066;2022-11-11T10:42:43;9.25;;;5.90;;
23346;SDS011;36852;45.466;11.066;2022-11-11T10:45:50;8.63;;;6.28;;
23346;SDS011;36852;45.466;11.066;2022-11-11T10:48:43;8.75;;;6.17;;
23346;SDS011;36852;45.466;11.066;2022-11-11T10:51:49;11.50;;;6.15;;
23346;SDS011;36852;45.466;11.066;2022-11-11T10:57:38;6.78;;;5.03;;
23346;SDS011;36852;45.466;11.066;2022-11-11T11:00:29;7.03;;;6.00;;
23346;SDS011;36852;45.466;11.066;2022-11-11T11:06:13;6.83;;;5.72;;
23346;SDS011;36852;45.466;11.066;2022-11-11T11:09:34;10.65;;;6.03;;
23346;SDS011;36852;45.466;11.066;2022-11-11T11:12:14;10.10;;;6.15;;
23346;SDS011;36852;45.466;11.066;2022-11-11T11:15:10;8.73;;;6.85;;
23346;SDS011;36852;45.466;11.066;2022-11-11T11:23:45;10.95;;;8.23;;
23346;SDS011;36852;45.466;11.066;2022-11-11T11:26:41;13.38;;;10.65;;
23346;SDS011;36852;45.466;11.066;2022-11-11T11:32:29;17.80;;;10.78;;
23346;SDS011;36852;45.466;11.066;2022-11-11T11:38:40;11.80;;;10.50;;
23346;SDS011;36852;45.466;11.066;2022-11-11T11:41:36;11.12;;;9.80;;
23346;SDS011;36852;45.466;11.066;2022-11-11T11:44:27;14.20;;;9.33;;
23346;SDS011;36852;45.466;11.066;2022-11-11T11:50:50;10.93;;;9.55;;
23346;SDS011;36852;45.466;11.066;2022-11-11T11:56:37;12.85;;;10.53;;
23346;SDS011;36852;45.466;11.066;2022-11-11T12:02:40;13.30;;;10.88;;
23346;SDS011;36852;45.466;11.066;2022-11-11T12:12:12;14.20;;;11.22;;
23346;SDS011;36852;45.466;11.066;2022-11-11T12:21:18;13.50;;;11.57;;
23346;SDS011;36852;45.466;11.066;2022-11-11T12:39:26;15.00;;;13.28;;
23346;SDS011;36852;45.466;11.066;2022-11-11T13:00:18;16.37;;;14.68;;
23346;SDS011;36852;45.466;11.066;2022-11-11T13:06:27;16.77;;;13.45;;
23346;SDS011;36852;45.466;11.066;2022-11-11T13:10:23;14.55;;;13.13;;
23346;SDS011;36852;45.466;11.066;2022-11-11T13:12:33;14.23;;;12.78;;
23346;SDS011;36852;45.466;11.066;2022-11-11T13:15:22;14.83;;;13.25;;
23346;SDS011;36852;45.466;11.066;2022-11-11T13:21:24;13.18;;;11.88;;
23346;SDS011;36852;45.466;11.066;2022-11-11T13:24:25;15.15;;;13.38;;
23346;SDS011;36852;45.466;11.066;2022-11-11T13:27:16;14.10;;;12.60;;
23346;SDS011;36852;45.466;11.066;2022-11-11T13:30:06;14.30;;;12.40;;
23346;SDS011;36852;45.466;11.066;2022-11-11T13:33:02;18.10;;;12.30;;
23346;SDS011;36852;45.466;11.066;2022-11-11T13:35:55;13.88;;;11.33;;
23346;SDS011;36852;45.466;11.066;2022-11-11T13:38:53;13.88;;;11.75;;
23346;SDS011;36852;45.466;11.066;2022-11-11T13:41:41;15.03;;;10.85;;
23346;SDS011;36852;45.466;11.066;2022-11-11T13:44:34;11.78;;;10.63;;
23346;SDS011;36852;45.466;11.066;2022-11-11T13:47:29;11.73;;;9.85;;
23346;SDS011;36852;45.466;11.066;2022-11-11T13:50:25;11.35;;;10.25;;
23346;SDS011;36852;45.466;11.066;2022-11-11T13:53:27;12.50;;;11.18;;
23346;SDS011;36852;45.466;11.066;2022-11-11T13:56:21;15.00;;;12.35;;
23346;SDS011;36852;45.466;11.066;2022-11-11T13:59:28;12.63;;;11.22;;
23346;SDS011;36852;45.466;11.066;2022-11-11T14:07:59;15.85;;;12.20;;
23346;SDS011;36852;45.466;11.066;2022-11-11T14:10:49;12.53;;;11.35;;
23346;SDS011;36852;45.466;11.066;2022-11-11T14:13:40;14.65;;;11.65;;
23346;SDS011;36852;45.466;11.066;2022-11-11T14:19:33;11.55;;;10.45;;
23346;SDS011;36852;45.466;11.066;2022-11-11T14:28:03;10.95;;;9.58;;
23346;SDS011;36852;45.466;11.066;2022-11-11T14:30:50;11.08;;;10.10;;
23346;SDS011;36852;45.466;11.066;2022-11-11T14:39:31;11.57;;;10.55;;
23346;SDS011;36852;45.466;11.066;2022-11-11T14:49:15;18.12;;;12.45;;
23346;SDS011;36852;45.466;11.066;2022-11-11T14:54:41;15.55;;;14.00;;
23346;SDS011;36852;45.466;11.066;2022-11-11T14:57:38;14.33;;;12.95;;
23346;SDS011;36852;45.466;11.066;2022-11-11T15:00:28;15.18;;;13.58;;
23346;SDS011;36852;45.466;11.066;2022-11-11T15:12:12;21.52;;;16.62;;
23346;SDS011;36852;45.466;11.066;2022-11-11T15:15:09;19.23;;;17.27;;
23346;SDS011;36852;45.466;11.066;2022-11-11T15:26:42;24.07;;;19.00;;
23346;SDS011;36852;45.466;11.066;2022-11-11T15:32:54;23.38;;;18.12;;
23346;SDS011;36852;45.466;11.066;2022-11-11T15:35:57;21.12;;;18.85;;
23346;SDS011;36852;45.466;11.066;2022-11-11T15:38:50;22.07;;;19.15;;
23346;SDS011;36852;45.466;11.066;2022-11-11T15:41:38;27.62;;;18.92;;
23346;SDS011;36852;45.466;11.066;2022-11-11T15:44:27;20.70;;;17.67;;
23346;SDS011;36852;45.466;11.066;2022-11-11T15:47:15;18.37;;;15.58;;
23346;SDS011;36852;45.466;11.066;2022-11-11T15:50:27;18.57;;;15.80;;
23346;SDS011;36852;45.466;11.066;2022-11-11T15:53:11;19.25;;;15.63;;
23346;SDS011;36852;45.466;11.066;2022-11-11T15:55:58;18.10;;;14.60;;
23346;SDS011;36852;45.466;11.066;2022-11-11T15:58:46;18.20;;;14.38;;
23346;SDS011;36852;45.466;11.066;2022-11-11T16:01:36;26.85;;;15.80;;
23346;SDS011;36852;45.466;11.066;2022-11-11T16:04:23;18.25;;;15.23;;
23346;SDS011;36852;45.466;11.066;2022-11-11T16:07:22;24.18;;;15.58;;
23346;SDS011;36852;45.466;11.066;2022-11-11T16:13:19;18.75;;;16.00;;
23346;SDS011;36852;45.466;11.066;2022-11-11T16:16:08;19.70;;;15.65;;
23346;SDS011;36852;45.466;11.066;2022-11-11T16:21:56;17.95;;;16.05;;
23346;SDS011;36852;45.466;11.066;2022-11-11T16:24:46;20.05;;;15.75;;
23346;SDS011;36852;45.466;11.066;2022-11-11T16:27:34;17.85;;;15.00;;
23346;SDS011;36852;45.466;11.066;2022-11-11T16:36:19;17.62;;;15.00;;
23346;SDS011;36852;45.466;11.066;2022-11-11T16:39:39;20.17;;;15.90;;
23346;SDS011;36852;45.466;11.066;2022-11-11T16:42:06;23.30;;;16.37;;
23346;SDS011;36852;45.466;11.066;2022-11-11T16:45:05;18.82;;;15.72;;
23346;SDS011;36852;45.466;11.066;2022-11-11T16:48:32;20.23;;;15.90;;
23346;SDS011;36852;45.466;11.066;2022-11-11T16:51:03;18.92;;;15.30;;
23346;SDS011;36852;45.466;11.066;2022-11-11T16:54:08;17.70;;;15.50;;
23346;SDS011;36852;45.466;11.066;2022-11-11T16:57:00;19.07;;;16.55;;
23346;SDS011;36852;45.466;11.066;2022-11-11T16:59:47;21.15;;;17.10;;
23346;SDS011;36852;45.466;11.066;2022-11-11T17:02:36;20.57;;;16.12;;
23346;SDS011;36852;45.466;11.066;2022-11-11T17:05:45;21.97;;;15.53;;
23346;SDS011;36852;45.466;11.066;2022-11-11T17:11:41;19.92;;;16.30;;
23346;SDS011;36852;45.466;11.066;2022-11-11T17:14:27;25.10;;;17.07;;
23346;SDS011;36852;45.466;11.066;2022-11-11T17:17:16;22.15;;;17.85;;
23346;SDS011;36852;45.466;11.066;2022-11-11T17:20:07;21.15;;;16.60;;
23346;SDS011;36852;45.466;11.066;2022-11-11T17:22:53;22.32;;;17.05;;
23346;SDS011;36852;45.466;11.066;2022-11-11T17:28:36;22.43;;;17.87;;
23346;SDS011;36852;45.466;11.066;2022-11-11T17:31:23;23.92;;;17.05;;
23346;SDS011;36852;45.466;11.066;2022-11-11T17:34:09;20.92;;;17.10;;
23346;SDS011;36852;45.466;11.066;2022-11-11T17:36:55;20.50;;;17.07;;
23346;SDS011;36852;45.466;11.066;2022-11-11T17:39:41;27.17;;;16.95;;
23346;SDS011;36852;45.466;11.066;2022-11-11T17:42:30;19.55;;;16.77;;
23346;SDS011;36852;45.466;11.066;2022-11-11T17:45:24;18.00;;;15.58;;
23346;SDS011;36852;45.466;11.066;2022-11-11T17:48:13;19.42;;;16.10;;
23346;SDS011;36852;45.466;11.066;2022-11-11T17:51:07;18.05;;;15.05;;
23346;SDS011;36852;45.466;11.066;2022-11-11T17:53:53;20.48;;;16.12;;
23346;SDS011;36852;45.466;11.066;2022-11-11T17:56:45;20.08;;;17.12;;
23346;SDS011;36852;45.466;11.066;2022-11-11T17:59:31;22.50;;;17.17;;
23346;SDS011;36852;45.466;11.066;2022-11-11T18:02:20;23.87;;;16.50;;
23346;SDS011;36852;45.466;11.066;2022-11-11T18:05:14;20.85;;;16.60;;
23346;SDS011;36852;45.466;11.066;2022-11-11T18:08:01;21.77;;;16.50;;
23346;SDS011;36852;45.466;11.066;2022-11-11T18:10:48;22.50;;;16.10;;
23346;SDS011;36852;45.466;11.066;2022-11-11T18:13:35;23.45;;;16.10;;
23346;SDS011;36852;45.466;11.066;2022-11-11T18:16:21;23.05;;;16.00;;
23346;SDS011;36852;45.466;11.066;2022-11-11T18:19:07;19.02;;;16.37;;
23346;SDS011;36852;45.466;11.066;2022-11-11T18:21:54;21.50;;;16.70;;
23346;SDS011;36852;45.466;11.066;2022-11-11T18:24:40;24.50;;;17.42;;
23346;SDS011;36852;45.466;11.066;2022-11-11T18:27:26;23.22;;;17.00;;
23346;SDS011;36852;45.466;11.066;2022-11-11T18:30:13;21.23;;;16.77;;
23346;SDS011;36852;45.466;11.066;2022-11-11T18:33:00;21.97;;;16.27;;
23346;SDS011;36852;45.466;11.066;2022-11-11T18:35:47;21.35;;;16.17;;
23346;SDS011;36852;45.466;11.066;2022-11-11T18:38:33;22.22;;;16.67;;
23346;SDS011;36852;45.466;11.066;2022-11-11T18:41:22;20.00;;;16.40;;
23346;SDS011;36852;45.466;11.066;2022-11-11T18:44:09;27.60;;;17.30;;
23346;SDS011;36852;45.466;11.066;2022-11-11T18:46:55;19.12;;;15.68;;
23346;SDS011;36852;45.466;11.066;2022-11-11T18:49:41;18.70;;;15.13;;
23346;SDS011;36852;45.466;11.066;2022-11-11T18:52:27;23.67;;;16.00;;
23346;SDS011;36852;45.466;11.066;2022-11-11T18:55:14;20.35;;;14.78;;
23346;SDS011;36852;45.466;11.066;2022-11-11T18:58:01;17.80;;;15.30;;
23346;SDS011;36852;45.466;11.066;2022-11-11T19:00:47;19.07;;;14.07;;
23346;SDS011;36852;45.466;11.066;2022-11-11T19:03:34;17.67;;;13.18;;
23346;SDS011;36852;45.466;11.066;2022-11-11T19:06:20;19.82;;;13.00;;
23346;SDS011;36852;45.466;11.066;2022-11-11T19:09:10;18.62;;;13.58;;
23346;SDS011;36852;45.466;11.066;2022-11-11T19:11:58;18.25;;;13.22;;
23346;SDS011;36852;45.466;11.066;2022-11-11T19:14:44;16.05;;;12.30;;
23346;SDS011;36852;45.466;11.066;2022-11-11T19:17:31;17.37;;;12.78;;
23346;SDS011;36852;45.466;11.066;2022-11-11T19:20:17;15.65;;;12.65;;
23346;SDS011;36852;45.466;11.066;2022-11-11T19:23:03;18.85;;;14.03;;
23346;SDS011;36852;45.466;11.066;2022-11-11T19:25:56;20.68;;;14.25;;
23346;SDS011;36852;45.466;11.066;2022-11-11T19:28:43;21.17;;;13.25;;
23346;SDS011;36852;45.466;11.066;2022-11-11T19:31:29;19.30;;;15.93;;
23346;SDS011;36852;45.466;11.066;2022-11-11T19:34:15;27.32;;;17.75;;
23346;SDS011;36852;45.466;11.066;2022-11-11T19:37:01;21.85;;;16.90;;
23346;SDS011;36852;45.466;11.066;2022-11-11T19:39:48;23.47;;;16.32;;
23346;SDS011;36852;45.466;11.066;2022-11-11T19:42:34;20.20;;;14.30;;